sensor_id;sensor_type;location;lat;lon;timestamp;temperature;humidity
39849;DHT22;25518;47.878;15.914;2023-09-18T00:00:09;13.70;99.90
39849;DHT22;25518;47.878;15.914;2023-09-18T00:02:42;13.80;99.90
39849;DHT22;25518;47.878;15.914;2023-09-18T00:05:13;13.70;99.90
39849;DHT22;25518;47.878;15.914;2023-09-18T00:07:46;13.70;99.90
39849;DHT22;25518;47.878;15.914;2023-09-18T00:10:17;13.60;99.90
39849;DHT22;25518;47.878;15.914;2023-09-18T00:12:48;13.50;99.90
39849;DHT22;25518;47.878;15.914;2023-09-18T00:15:19;13.70;99.90
39849;DHT22;25518;47.878;15.914;2023-09-18T00:17:50;13.70;99.90
39849;DHT22;25518;47.878;15.914;2023-09-18T00:20:21;13.70;99.90
39849;DHT22;25518;47.878;15.914;2023-09-18T00:22:57;13.70;99.90
39849;DHT22;25518;47.878;15.914;2023-09-18T00:25:28;13.60;99.90
39849;DHT22;25518;47.878;15.914;2023-09-18T00:27:59;13.80;99.90
39849;DHT22;25518;47.878;15.914;2023-09-18T00:30:30;13.70;99.90
39849;DHT22;25518;47.878;15.914;2023-09-18T00:33:01;13.50;99.90
39849;DHT22;25518;47.878;15.914;2023-09-18T00:35:32;13.30;99.90
39849;DHT22;25518;47.878;15.914;2023-09-18T00:38:03;13.50;99.90
39849;DHT22;25518;47.878;15.914;2023-09-18T00:40:34;13.60;99.90
39849;DHT22;25518;47.878;15.914;2023-09-18T00:43:05;13.50;99.90
39849;DHT22;25518;47.878;15.914;2023-09-18T00:45:40;13.60;99.90
39849;DHT22;25518;47.878;15.914;2023-09-18T00:48:12;13.50;99.90
39849;DHT22;25518;47.878;15.914;2023-09-18T00:50:45;13.30;99.90
39849;DHT22;25518;47.878;15.914;2023-09-18T00:53:20;13.30;99.90
39849;DHT22;25518;47.878;15.914;2023-09-18T00:55:55;13.30;99.90
39849;DHT22;25518;47.878;15.914;2023-09-18T00:58:27;13.40;99.90
39849;DHT22;25518;47.878;15.914;2023-09-18T01:00:58;13.60;99.90
39849;DHT22;25518;47.878;15.914;2023-09-18T01:03:30;13.40;99.90
39849;DHT22;25518;47.878;15.914;2023-09-18T01:06:01;13.50;99.90
39849;DHT22;25518;47.878;15.914;2023-09-18T01:08:32;13.30;99.90
39849;DHT22;25518;47.878;15.914;2023-09-18T01:11:10;13.30;99.90
39849;DHT22;25518;47.878;15.914;2023-09-18T01:13:52;13.30;99.90
39849;DHT22;25518;47.878;15.914;2023-09-18T01:16:31;13.30;99.90
39849;DHT22;25518;47.878;15.914;2023-09-18T01:19:05;13.30;99.90
39849;DHT22;25518;47.878;15.914;2023-09-18T01:21:36;13.30;99.90
39849;DHT22;25518;47.878;15.914;2023-09-18T01:24:07;13.20;99.90
39849;DHT22;25518;47.878;15.914;2023-09-18T01:26:38;13.20;99.90
39849;DHT22;25518;47.878;15.914;2023-09-18T01:29:09;12.70;99.90
39849;DHT22;25518;47.878;15.914;2023-09-18T01:31:40;12.90;99.90
39849;DHT22;25518;47.878;15.914;2023-09-18T01:34:12;13.10;99.90
39849;DHT22;25518;47.878;15.914;2023-09-18T01:36:44;13.20;99.90
39849;DHT22;25518;47.878;15.914;2023-09-18T01:39:17;13.10;99.90
39849;DHT22;25518;47.878;15.914;2023-09-18T01:41:49;13.00;99.90
39849;DHT22;25518;47.878;15.914;2023-09-18T01:44:20;13.10;99.90
39849;DHT22;25518;47.878;15.914;2023-09-18T01:46:52;13.10;99.90
39849;DHT22;25518;47.878;15.914;2023-09-18T01:49:29;13.10;99.90
39849;DHT22;25518;47.878;15.914;2023-09-18T01:52:02;13.20;99.90
39849;DHT22;25518;47.878;15.914;2023-09-18T01:54:34;13.00;99.90
39849;DHT22;25518;47.878;15.914;2023-09-18T01:57:06;12.50;99.90
39849;DHT22;25518;47.878;15.914;2023-09-18T01:59:38;12.80;99.90
39849;DHT22;25518;47.878;15.914;2023-09-18T02:02:09;12.80;99.90
39849;DHT22;25518;47.878;15.914;2023-09-18T02:04:40;12.80;99.90
39849;DHT22;25518;47.878;15.914;2023-09-18T02:07:11;12.80;99.90
39849;DHT22;25518;47.878;15.914;2023-09-18T02:09:42;12.60;99.90
39849;DHT22;25518;47.878;15.914;2023-09-18T02:12:14;12.50;99.90
39849;DHT22;25518;47.878;15.914;2023-09-18T02:14:48;12.60;99.90
39849;DHT22;25518;47.878;15.914;2023-09-18T02:17:19;12.50;99.90
39849;DHT22;25518;47.878;15.914;2023-09-18T02:19:51;12.70;99.90
39849;DHT22;25518;47.878;15.914;2023-09-18T02:22:22;12.80;99.90
39849;DHT22;25518;47.878;15.914;2023-09-18T02:24:53;12.70;99.90
39849;DHT22;25518;47.878;15.914;2023-09-18T02:27:24;12.40;99.90
39849;DHT22;25518;47.878;15.914;2023-09-18T02:29:55;12.70;99.90
39849;DHT22;25518;47.878;15.914;2023-09-18T02:32:26;12.70;99.90
39849;DHT22;25518;47.878;15.914;2023-09-18T02:34:58;12.80;99.90
39849;DHT22;25518;47.878;15.914;2023-09-18T02:37:29;12.70;99.90
39849;DHT22;25518;47.878;15.914;2023-09-18T02:39:59;12.30;99.90
39849;DHT22;25518;47.878;15.914;2023-09-18T02:42:31;12.70;99.90
39849;DHT22;25518;47.878;15.914;2023-09-18T02:45:02;12.60;99.90
39849;DHT22;25518;47.878;15.914;2023-09-18T02:47:33;11.50;99.90
39849;DHT22;25518;47.878;15.914;2023-09-18T02:50:05;11.00;99.90
39849;DHT22;25518;47.878;15.914;2023-09-18T02:52:36;12.40;99.90
39849;DHT22;25518;47.878;15.914;2023-09-18T02:55:07;12.50;99.90
39849;DHT22;25518;47.878;15.914;2023-09-18T02:57:40;12.50;99.90
39849;DHT22;25518;47.878;15.914;2023-09-18T03:00:11;12.40;99.90
39849;DHT22;25518;47.878;15.914;2023-09-18T03:17:47;12.40;99.90
39849;DHT22;25518;47.878;15.914;2023-09-18T03:20:22;12.50;99.90
39849;DHT22;25518;47.878;15.914;2023-09-18T03:22:57;12.30;99.90
39849;DHT22;25518;47.878;15.914;2023-09-18T03:25:28;12.00;99.90
39849;DHT22;25518;47.878;15.914;2023-09-18T03:28:00;12.20;99.90
39849;DHT22;25518;47.878;15.914;2023-09-18T03:30:31;12.30;99.90
39849;DHT22;25518;47.878;15.914;2023-09-18T03:33:02;12.30;99.90
39849;DHT22;25518;47.878;15.914;2023-09-18T03:35:46;12.20;99.90
39849;DHT22;25518;47.878;15.914;2023-09-18T03:38:18;12.20;99.90
39849;DHT22;25518;47.878;15.914;2023-09-18T03:40:49;12.10;99.90
39849;DHT22;25518;47.878;15.914;2023-09-18T03:43:21;12.10;99.90
39849;DHT22;25518;47.878;15.914;2023-09-18T03:45:52;12.20;99.90
39849;DHT22;25518;47.878;15.914;2023-09-18T03:48:23;12.00;99.90
39849;DHT22;25518;47.878;15.914;2023-09-18T03:50:54;12.20;99.90
39849;DHT22;25518;47.878;15.914;2023-09-18T03:53:25;12.20;99.90
39849;DHT22;25518;47.878;15.914;2023-09-18T03:55:56;12.20;99.90
39849;DHT22;25518;47.878;15.914;2023-09-18T03:58:27;12.10;99.90
39849;DHT22;25518;47.878;15.914;2023-09-18T04:00:58;12.10;99.90
39849;DHT22;25518;47.878;15.914;2023-09-18T04:03:29;12.20;99.90
39849;DHT22;25518;47.878;15.914;2023-09-18T04:05:59;12.20;99.90
39849;DHT22;25518;47.878;15.914;2023-09-18T04:08:30;12.10;99.90
39849;DHT22;25518;47.878;15.914;2023-09-18T04:11:01;12.30;99.90
39849;DHT22;25518;47.878;15.914;2023-09-18T04:13:34;12.10;99.90
39849;DHT22;25518;47.878;15.914;2023-09-18T04:16:05;12.20;99.90
39849;DHT22;25518;47.878;15.914;2023-09-18T04:18:36;12.00;99.90
39849;DHT22;25518;47.878;15.914;2023-09-18T04:21:07;12.00;99.90
39849;DHT22;25518;47.878;15.914;2023-09-18T04:23:38;11.70;99.90
39849;DHT22;25518;47.878;15.914;2023-09-18T04:26:09;11.80;99.90
39849;DHT22;25518;47.878;15.914;2023-09-18T04:28:41;11.70;99.90
39849;DHT22;25518;47.878;15.914;2023-09-18T04:31:12;11.50;99.90
39849;DHT22;25518;47.878;15.914;2023-09-18T04:33:43;11.80;99.90
39849;DHT22;25518;47.878;15.914;2023-09-18T04:36:16;11.60;99.90
39849;DHT22;25518;47.878;15.914;2023-09-18T04:38:47;12.00;99.90
39849;DHT22;25518;47.878;15.914;2023-09-18T04:41:18;12.10;99.90
39849;DHT22;25518;47.878;15.914;2023-09-18T04:43:49;11.80;99.90
39849;DHT22;25518;47.878;15.914;2023-09-18T04:46:21;11.90;99.90
39849;DHT22;25518;47.878;15.914;2023-09-18T04:48:52;11.90;99.90
39849;DHT22;25518;47.878;15.914;2023-09-18T04:51:23;11.90;99.90
39849;DHT22;25518;47.878;15.914;2023-09-18T04:53:54;11.70;99.90
39849;DHT22;25518;47.878;15.914;2023-09-18T04:56:25;11.80;99.90
39849;DHT22;25518;47.878;15.914;2023-09-18T04:58:57;10.90;99.90
39849;DHT22;25518;47.878;15.914;2023-09-18T05:01:28;11.90;99.90
39849;DHT22;25518;47.878;15.914;2023-09-18T05:04:00;12.10;99.90
39849;DHT22;25518;47.878;15.914;2023-09-18T05:06:31;12.10;99.90
39849;DHT22;25518;47.878;15.914;2023-09-18T05:09:02;11.90;99.90
39849;DHT22;25518;47.878;15.914;2023-09-18T05:11:34;11.90;99.90
39849;DHT22;25518;47.878;15.914;2023-09-18T05:14:05;12.00;99.90
39849;DHT22;25518;47.878;15.914;2023-09-18T05:16:36;12.00;99.90
39849;DHT22;25518;47.878;15.914;2023-09-18T05:19:08;11.90;99.90
39849;DHT22;25518;47.878;15.914;2023-09-18T05:21:38;11.90;99.90
39849;DHT22;25518;47.878;15.914;2023-09-18T05:24:09;12.00;99.90
39849;DHT22;25518;47.878;15.914;2023-09-18T05:26:40;12.10;99.90
39849;DHT22;25518;47.878;15.914;2023-09-18T05:29:11;11.90;99.90
39849;DHT22;25518;47.878;15.914;2023-09-18T05:31:43;11.90;99.90
39849;DHT22;25518;47.878;15.914;2023-09-18T05:34:14;11.80;99.90
39849;DHT22;25518;47.878;15.914;2023-09-18T05:36:45;11.80;99.90
39849;DHT22;25518;47.878;15.914;2023-09-18T05:39:16;11.90;99.90
39849;DHT22;25518;47.878;15.914;2023-09-18T05:41:47;12.10;99.90
39849;DHT22;25518;47.878;15.914;2023-09-18T05:44:19;12.00;99.90
39849;DHT22;25518;47.878;15.914;2023-09-18T05:46:50;12.00;99.90
39849;DHT22;25518;47.878;15.914;2023-09-18T05:49:21;12.10;99.90
39849;DHT22;25518;47.878;15.914;2023-09-18T05:51:51;12.00;99.90
39849;DHT22;25518;47.878;15.914;2023-09-18T05:54:23;11.50;99.90
39849;DHT22;25518;47.878;15.914;2023-09-18T05:56:55;11.50;99.90
39849;DHT22;25518;47.878;15.914;2023-09-18T05:59:26;11.70;99.90
39849;DHT22;25518;47.878;15.914;2023-09-18T06:01:57;11.80;99.90
39849;DHT22;25518;47.878;15.914;2023-09-18T06:04:28;12.00;99.90
39849;DHT22;25518;47.878;15.914;2023-09-18T06:06:59;12.10;99.90
39849;DHT22;25518;47.878;15.914;2023-09-18T06:09:31;11.70;99.90
39849;DHT22;25518;47.878;15.914;2023-09-18T06:12:02;12.30;99.90
39849;DHT22;25518;47.878;15.914;2023-09-18T06:14:35;11.30;99.90
39849;DHT22;25518;47.878;15.914;2023-09-18T06:17:09;11.80;99.90
39849;DHT22;25518;47.878;15.914;2023-09-18T06:19:41;11.80;99.90
39849;DHT22;25518;47.878;15.914;2023-09-18T06:22:13;12.10;99.90
39849;DHT22;25518;47.878;15.914;2023-09-18T06:24:44;12.20;99.90
39849;DHT22;25518;47.878;15.914;2023-09-18T06:27:15;12.30;99.90
39849;DHT22;25518;47.878;15.914;2023-09-18T06:29:46;12.20;99.90
39849;DHT22;25518;47.878;15.914;2023-09-18T06:32:17;12.20;99.90
39849;DHT22;25518;47.878;15.914;2023-09-18T06:34:48;12.30;99.90
39849;DHT22;25518;47.878;15.914;2023-09-18T06:37:18;11.30;99.90
39849;DHT22;25518;47.878;15.914;2023-09-18T06:39:51;12.40;99.90
39849;DHT22;25518;47.878;15.914;2023-09-18T06:42:23;12.50;99.90
39849;DHT22;25518;47.878;15.914;2023-09-18T06:44:54;12.60;99.90
39849;DHT22;25518;47.878;15.914;2023-09-18T06:47:26;12.70;99.90
39849;DHT22;25518;47.878;15.914;2023-09-18T06:49:57;12.80;99.90
39849;DHT22;25518;47.878;15.914;2023-09-18T06:52:28;13.00;99.90
39849;DHT22;25518;47.878;15.914;2023-09-18T06:54:59;13.10;99.90
39849;DHT22;25518;47.878;15.914;2023-09-18T06:57:30;13.10;99.90
39849;DHT22;25518;47.878;15.914;2023-09-18T07:00:02;13.10;99.90
39849;DHT22;25518;47.878;15.914;2023-09-18T07:02:35;13.10;99.90
39849;DHT22;25518;47.878;15.914;2023-09-18T07:05:06;11.70;99.90
39849;DHT22;25518;47.878;15.914;2023-09-18T07:07:37;13.20;99.90
39849;DHT22;25518;47.878;15.914;2023-09-18T07:10:08;13.30;99.90
39849;DHT22;25518;47.878;15.914;2023-09-18T07:12:39;13.20;99.90
39849;DHT22;25518;47.878;15.914;2023-09-18T07:15:10;13.20;99.90
39849;DHT22;25518;47.878;15.914;2023-09-18T07:17:41;13.10;99.90
39849;DHT22;25518;47.878;15.914;2023-09-18T07:20:12;13.30;99.90
39849;DHT22;25518;47.878;15.914;2023-09-18T07:22:46;13.70;99.90
39849;DHT22;25518;47.878;15.914;2023-09-18T07:25:18;13.70;99.90
39849;DHT22;25518;47.878;15.914;2023-09-18T07:27:49;13.70;99.90
39849;DHT22;25518;47.878;15.914;2023-09-18T07:30:20;13.90;99.90
39849;DHT22;25518;47.878;15.914;2023-09-18T07:32:55;14.00;99.90
39849;DHT22;25518;47.878;15.914;2023-09-18T07:35:28;14.20;99.90
39849;DHT22;25518;47.878;15.914;2023-09-18T07:37:59;14.30;99.90
39849;DHT22;25518;47.878;15.914;2023-09-18T07:40:30;14.50;99.90
39849;DHT22;25518;47.878;15.914;2023-09-18T07:43:01;14.50;99.90
39849;DHT22;25518;47.878;15.914;2023-09-18T07:45:34;14.60;99.90
39849;DHT22;25518;47.878;15.914;2023-09-18T07:48:05;14.90;99.90
39849;DHT22;25518;47.878;15.914;2023-09-18T07:50:37;15.00;99.90
39849;DHT22;25518;47.878;15.914;2023-09-18T07:53:10;15.20;99.90
39849;DHT22;25518;47.878;15.914;2023-09-18T07:55:41;15.00;99.90
39849;DHT22;25518;47.878;15.914;2023-09-18T07:58:12;15.10;99.90
39849;DHT22;25518;47.878;15.914;2023-09-18T08:00:44;15.00;99.90
39849;DHT22;25518;47.878;15.914;2023-09-18T08:03:15;15.20;99.90
39849;DHT22;25518;47.878;15.914;2023-09-18T08:05:46;15.20;99.90
39849;DHT22;25518;47.878;15.914;2023-09-18T08:08:20;15.20;99.90
39849;DHT22;25518;47.878;15.914;2023-09-18T08:10:53;15.10;99.90
39849;DHT22;25518;47.878;15.914;2023-09-18T08:13:24;15.10;99.90
39849;DHT22;25518;47.878;15.914;2023-09-18T08:15:55;15.80;99.90
39849;DHT22;25518;47.878;15.914;2023-09-18T08:18:26;16.00;99.90
39849;DHT22;25518;47.878;15.914;2023-09-18T08:20:58;16.30;99.90
39849;DHT22;25518;47.878;15.914;2023-09-18T08:23:29;16.40;99.90
39849;DHT22;25518;47.878;15.914;2023-09-18T08:26:00;16.70;99.90
39849;DHT22;25518;47.878;15.914;2023-09-18T08:28:31;16.80;99.90
39849;DHT22;25518;47.878;15.914;2023-09-18T08:31:04;16.80;99.90
39849;DHT22;25518;47.878;15.914;2023-09-18T08:33:34;16.70;99.90
39849;DHT22;25518;47.878;15.914;2023-09-18T08:36:07;16.60;99.90
39849;DHT22;25518;47.878;15.914;2023-09-18T08:38:37;16.50;99.90
39849;DHT22;25518;47.878;15.914;2023-09-18T08:41:10;16.60;99.90
39849;DHT22;25518;47.878;15.914;2023-09-18T08:43:43;16.70;99.90
39849;DHT22;25518;47.878;15.914;2023-09-18T08:46:14;16.80;99.90
39849;DHT22;25518;47.878;15.914;2023-09-18T08:48:45;16.80;99.90
39849;DHT22;25518;47.878;15.914;2023-09-18T08:51:18;16.80;99.90
39849;DHT22;25518;47.878;15.914;2023-09-18T08:53:49;17.00;99.90
39849;DHT22;25518;47.878;15.914;2023-09-18T08:56:22;17.10;99.90
39849;DHT22;25518;47.878;15.914;2023-09-18T08:58:54;17.10;99.90
39849;DHT22;25518;47.878;15.914;2023-09-18T09:01:27;17.20;99.90
39849;DHT22;25518;47.878;15.914;2023-09-18T09:03:58;17.30;99.90
39849;DHT22;25518;47.878;15.914;2023-09-18T09:06:31;17.50;99.90
39849;DHT22;25518;47.878;15.914;2023-09-18T09:09:03;17.50;99.90
39849;DHT22;25518;47.878;15.914;2023-09-18T09:11:34;17.70;99.90
39849;DHT22;25518;47.878;15.914;2023-09-18T09:14:14;17.70;99.90
39849;DHT22;25518;47.878;15.914;2023-09-18T09:16:51;18.10;99.90
39849;DHT22;25518;47.878;15.914;2023-09-18T09:19:31;18.20;99.90
39849;DHT22;25518;47.878;15.914;2023-09-18T09:22:02;18.50;99.90
39849;DHT22;25518;47.878;15.914;2023-09-18T09:24:41;18.70;99.90
39849;DHT22;25518;47.878;15.914;2023-09-18T09:27:13;19.00;99.90
39849;DHT22;25518;47.878;15.914;2023-09-18T09:29:58;19.30;99.90
39849;DHT22;25518;47.878;15.914;2023-09-18T09:32:32;19.40;99.90
39849;DHT22;25518;47.878;15.914;2023-09-18T09:35:04;19.20;99.90
39849;DHT22;25518;47.878;15.914;2023-09-18T09:37:37;19.20;99.90
39849;DHT22;25518;47.878;15.914;2023-09-18T09:40:12;19.10;99.90
39849;DHT22;25518;47.878;15.914;2023-09-18T09:42:45;19.10;99.90
39849;DHT22;25518;47.878;15.914;2023-09-18T09:45:17;19.40;99.90
39849;DHT22;25518;47.878;15.914;2023-09-18T09:47:53;19.50;99.90
39849;DHT22;25518;47.878;15.914;2023-09-18T09:50:25;19.60;99.90
39849;DHT22;25518;47.878;15.914;2023-09-18T09:52:56;19.70;99.90
39849;DHT22;25518;47.878;15.914;2023-09-18T09:55:32;19.80;99.90
39849;DHT22;25518;47.878;15.914;2023-09-18T09:58:06;19.90;99.90
39849;DHT22;25518;47.878;15.914;2023-09-18T10:00:39;19.90;99.90
39849;DHT22;25518;47.878;15.914;2023-09-18T10:03:16;19.90;99.90
39849;DHT22;25518;47.878;15.914;2023-09-18T10:05:51;20.10;99.90
39849;DHT22;25518;47.878;15.914;2023-09-18T10:08:25;20.40;99.90
39849;DHT22;25518;47.878;15.914;2023-09-18T10:11:04;20.40;99.90
39849;DHT22;25518;47.878;15.914;2023-09-18T10:13:59;20.60;99.90
39849;DHT22;25518;47.878;15.914;2023-09-18T10:16:32;20.70;99.90
39849;DHT22;25518;47.878;15.914;2023-09-18T10:19:14;20.80;99.90
39849;DHT22;25518;47.878;15.914;2023-09-18T10:24:37;21.30;99.90
39849;DHT22;25518;47.878;15.914;2023-09-18T10:27:12;21.60;99.90
39849;DHT22;25518;47.878;15.914;2023-09-18T10:29:49;21.90;99.90
39849;DHT22;25518;47.878;15.914;2023-09-18T10:32:22;22.20;99.90
39849;DHT22;25518;47.878;15.914;2023-09-18T10:34:54;22.60;99.90
39849;DHT22;25518;47.878;15.914;2023-09-18T10:37:27;23.10;99.90
39849;DHT22;25518;47.878;15.914;2023-09-18T10:40:00;23.40;99.90
39849;DHT22;25518;47.878;15.914;2023-09-18T10:42:31;23.70;99.90
39849;DHT22;25518;47.878;15.914;2023-09-18T10:45:04;24.20;99.90
39849;DHT22;25518;47.878;15.914;2023-09-18T10:47:39;24.50;99.90
39849;DHT22;25518;47.878;15.914;2023-09-18T10:50:11;24.80;99.90
39849;DHT22;25518;47.878;15.914;2023-09-18T10:52:43;25.00;99.90
39849;DHT22;25518;47.878;15.914;2023-09-18T10:55:15;25.20;99.90
39849;DHT22;25518;47.878;15.914;2023-09-18T11:00:28;25.50;99.90
39849;DHT22;25518;47.878;15.914;2023-09-18T11:03:22;25.50;99.90
39849;DHT22;25518;47.878;15.914;2023-09-18T11:06:11;25.70;99.90
39849;DHT22;25518;47.878;15.914;2023-09-18T11:08:48;25.80;99.90
39849;DHT22;25518;47.878;15.914;2023-09-18T11:11:20;26.00;99.90
39849;DHT22;25518;47.878;15.914;2023-09-18T11:13:52;26.00;99.90
39849;DHT22;25518;47.878;15.914;2023-09-18T11:16:34;26.10;99.90
39849;DHT22;25518;47.878;15.914;2023-09-18T11:19:11;26.10;99.90
39849;DHT22;25518;47.878;15.914;2023-09-18T11:21:43;26.10;99.90
39849;DHT22;25518;47.878;15.914;2023-09-18T11:24:22;26.20;99.90
39849;DHT22;25518;47.878;15.914;2023-09-18T11:26:54;26.30;99.90
39849;DHT22;25518;47.878;15.914;2023-09-18T11:29:26;26.40;99.90
39849;DHT22;25518;47.878;15.914;2023-09-18T11:31:59;26.50;99.90
39849;DHT22;25518;47.878;15.914;2023-09-18T11:34:32;26.50;99.90
39849;DHT22;25518;47.878;15.914;2023-09-18T11:37:22;26.70;99.90
39849;DHT22;25518;47.878;15.914;2023-09-18T11:39:54;26.70;99.90
39849;DHT22;25518;47.878;15.914;2023-09-18T11:42:26;26.80;99.90
39849;DHT22;25518;47.878;15.914;2023-09-18T11:44:57;26.90;99.90
39849;DHT22;25518;47.878;15.914;2023-09-18T11:47:29;26.90;99.90
39849;DHT22;25518;47.878;15.914;2023-09-18T11:50:03;26.90;99.90
39849;DHT22;25518;47.878;15.914;2023-09-18T11:52:35;26.90;99.90
39849;DHT22;25518;47.878;15.914;2023-09-18T11:55:06;26.90;99.90
39849;DHT22;25518;47.878;15.914;2023-09-18T11:57:38;26.90;99.90
39849;DHT22;25518;47.878;15.914;2023-09-18T12:00:20;26.80;99.90
39849;DHT22;25518;47.878;15.914;2023-09-18T12:02:54;27.00;99.90
39849;DHT22;25518;47.878;15.914;2023-09-18T12:05:26;27.10;99.90
39849;DHT22;25518;47.878;15.914;2023-09-18T12:07:57;27.10;99.90
39849;DHT22;25518;47.878;15.914;2023-09-18T12:10:28;27.10;99.90
39849;DHT22;25518;47.878;15.914;2023-09-18T12:12:59;27.20;99.90
39849;DHT22;25518;47.878;15.914;2023-09-18T12:15:30;26.70;99.90
39849;DHT22;25518;47.878;15.914;2023-09-18T12:18:06;27.40;99.90
39849;DHT22;25518;47.878;15.914;2023-09-18T12:20:44;27.40;99.90
39849;DHT22;25518;47.878;15.914;2023-09-18T12:23:17;27.40;99.90
39849;DHT22;25518;47.878;15.914;2023-09-18T12:25:59;27.50;99.90
39849;DHT22;25518;47.878;15.914;2023-09-18T12:28:31;27.60;99.90
39849;DHT22;25518;47.878;15.914;2023-09-18T12:31:04;27.70;99.90
39849;DHT22;25518;47.878;15.914;2023-09-18T12:33:38;27.70;99.90
39849;DHT22;25518;47.878;15.914;2023-09-18T12:36:10;27.60;99.90
39849;DHT22;25518;47.878;15.914;2023-09-18T12:38:41;27.70;99.90
39849;DHT22;25518;47.878;15.914;2023-09-18T12:41:12;27.60;99.90
39849;DHT22;25518;47.878;15.914;2023-09-18T12:43:44;27.50;99.90
39849;DHT22;25518;47.878;15.914;2023-09-18T12:46:16;27.50;99.90
39849;DHT22;25518;47.878;15.914;2023-09-18T12:48:50;27.60;99.90
39849;DHT22;25518;47.878;15.914;2023-09-18T12:51:30;27.70;99.90
39849;DHT22;25518;47.878;15.914;2023-09-18T12:54:02;27.70;99.90
39849;DHT22;25518;47.878;15.914;2023-09-18T12:56:41;27.70;99.90
39849;DHT22;25518;47.878;15.914;2023-09-18T12:59:12;27.60;99.90
39849;DHT22;25518;47.878;15.914;2023-09-18T13:01:46;27.40;99.90
39849;DHT22;25518;47.878;15.914;2023-09-18T13:04:18;27.70;99.90
39849;DHT22;25518;47.878;15.914;2023-09-18T13:07:11;27.50;99.90
39849;DHT22;25518;47.878;15.914;2023-09-18T13:09:43;27.90;99.90
39849;DHT22;25518;47.878;15.914;2023-09-18T13:12:14;27.80;99.90
39849;DHT22;25518;47.878;15.914;2023-09-18T13:15:02;27.90;99.90
39849;DHT22;25518;47.878;15.914;2023-09-18T13:17:42;27.90;99.90
39849;DHT22;25518;47.878;15.914;2023-09-18T13:20:17;27.80;99.90
39849;DHT22;25518;47.878;15.914;2023-09-18T13:22:52;27.80;99.90
39849;DHT22;25518;47.878;15.914;2023-09-18T13:25:28;27.80;99.90
39849;DHT22;25518;47.878;15.914;2023-09-18T13:27:59;27.80;99.90
39849;DHT22;25518;47.878;15.914;2023-09-18T13:30:31;27.90;99.90
39849;DHT22;25518;47.878;15.914;2023-09-18T13:33:07;27.90;99.90
39849;DHT22;25518;47.878;15.914;2023-09-18T13:35:41;28.00;99.90
39849;DHT22;25518;47.878;15.914;2023-09-18T13:38:12;27.70;99.90
39849;DHT22;25518;47.878;15.914;2023-09-18T13:40:46;27.70;99.90
39849;DHT22;25518;47.878;15.914;2023-09-18T13:43:17;26.00;99.90
39849;DHT22;25518;47.878;15.914;2023-09-18T13:45:53;27.80;99.90
39849;DHT22;25518;47.878;15.914;2023-09-18T13:48:25;27.90;99.90
39849;DHT22;25518;47.878;15.914;2023-09-18T13:50:57;28.00;99.90
39849;DHT22;25518;47.878;15.914;2023-09-18T13:53:28;28.40;99.90
39849;DHT22;25518;47.878;15.914;2023-09-18T13:56:01;28.40;99.90
39849;DHT22;25518;47.878;15.914;2023-09-18T13:58:33;28.70;99.90
39849;DHT22;25518;47.878;15.914;2023-09-18T14:01:06;28.70;99.90
39849;DHT22;25518;47.878;15.914;2023-09-18T14:03:38;28.80;99.90
39849;DHT22;25518;47.878;15.914;2023-09-18T14:06:12;28.80;99.90
39849;DHT22;25518;47.878;15.914;2023-09-18T14:08:43;29.00;99.90
39849;DHT22;25518;47.878;15.914;2023-09-18T14:11:14;29.00;99.90
39849;DHT22;25518;47.878;15.914;2023-09-18T14:13:44;29.30;99.90
39849;DHT22;25518;47.878;15.914;2023-09-18T14:16:15;29.60;99.90
39849;DHT22;25518;47.878;15.914;2023-09-18T14:18:48;29.60;99.90
39849;DHT22;25518;47.878;15.914;2023-09-18T14:21:19;29.70;99.90
39849;DHT22;25518;47.878;15.914;2023-09-18T14:23:50;29.50;99.90
39849;DHT22;25518;47.878;15.914;2023-09-18T14:26:21;29.60;99.90
39849;DHT22;25518;47.878;15.914;2023-09-18T14:28:53;29.80;99.90
39849;DHT22;25518;47.878;15.914;2023-09-18T14:31:24;29.50;99.90
39849;DHT22;25518;47.878;15.914;2023-09-18T14:33:55;29.00;99.90
39849;DHT22;25518;47.878;15.914;2023-09-18T14:36:28;29.00;99.90
39849;DHT22;25518;47.878;15.914;2023-09-18T14:39:01;28.70;99.90
39849;DHT22;25518;47.878;15.914;2023-09-18T14:41:32;28.20;99.90
39849;DHT22;25518;47.878;15.914;2023-09-18T14:44:04;27.50;99.90
39849;DHT22;25518;47.878;15.914;2023-09-18T14:46:36;27.10;99.90
39849;DHT22;25518;47.878;15.914;2023-09-18T14:49:08;26.10;99.90
39849;DHT22;25518;47.878;15.914;2023-09-18T14:51:39;26.40;99.90
39849;DHT22;25518;47.878;15.914;2023-09-18T14:54:11;26.10;99.90
39849;DHT22;25518;47.878;15.914;2023-09-18T14:56:42;25.90;99.90
39849;DHT22;25518;47.878;15.914;2023-09-18T14:59:15;25.60;99.90
39849;DHT22;25518;47.878;15.914;2023-09-18T15:01:46;25.40;99.90
39849;DHT22;25518;47.878;15.914;2023-09-18T15:04:19;25.20;99.90
39849;DHT22;25518;47.878;15.914;2023-09-18T15:06:52;25.10;99.90
39849;DHT22;25518;47.878;15.914;2023-09-18T15:09:23;25.00;99.90
39849;DHT22;25518;47.878;15.914;2023-09-18T15:11:54;24.50;99.90
39849;DHT22;25518;47.878;15.914;2023-09-18T15:14:25;24.90;99.90
39849;DHT22;25518;47.878;15.914;2023-09-18T15:16:55;24.90;99.90
39849;DHT22;25518;47.878;15.914;2023-09-18T15:19:27;25.00;99.90
39849;DHT22;25518;47.878;15.914;2023-09-18T15:21:58;25.00;99.90
39849;DHT22;25518;47.878;15.914;2023-09-18T15:24:31;24.90;99.90
39849;DHT22;25518;47.878;15.914;2023-09-18T15:27:03;24.90;99.90
39849;DHT22;25518;47.878;15.914;2023-09-18T15:29:34;24.80;99.90
39849;DHT22;25518;47.878;15.914;2023-09-18T15:32:05;24.70;99.90
39849;DHT22;25518;47.878;15.914;2023-09-18T15:34:36;24.50;99.90
39849;DHT22;25518;47.878;15.914;2023-09-18T15:37:07;24.40;99.90
39849;DHT22;25518;47.878;15.914;2023-09-18T15:39:38;24.30;99.90
39849;DHT22;25518;47.878;15.914;2023-09-18T15:42:08;24.10;99.90
39849;DHT22;25518;47.878;15.914;2023-09-18T15:44:40;23.90;99.90
39849;DHT22;25518;47.878;15.914;2023-09-18T15:47:11;23.80;99.90
39849;DHT22;25518;47.878;15.914;2023-09-18T15:49:42;23.70;99.90
39849;DHT22;25518;47.878;15.914;2023-09-18T15:52:12;23.40;99.90
39849;DHT22;25518;47.878;15.914;2023-09-18T15:54:43;23.20;99.90
39849;DHT22;25518;47.878;15.914;2023-09-18T15:57:15;23.00;99.90
39849;DHT22;25518;47.878;15.914;2023-09-18T15:59:46;23.00;99.90
39849;DHT22;25518;47.878;15.914;2023-09-18T16:02:17;23.00;99.90
39849;DHT22;25518;47.878;15.914;2023-09-18T16:04:48;22.90;99.90
39849;DHT22;25518;47.878;15.914;2023-09-18T16:07:19;22.70;99.90